createdAt,value
2023-04-12T00:00:01.790Z,57.52
2023-04-12T00:00:15.229Z,57.05
2023-04-12T00:00:27.486Z,57.95
2023-04-12T00:00:39.502Z,57.41
2023-04-12T00:00:52.690Z,57.40
2023-04-12T00:01:05.612Z,56.64
2023-04-12T00:01:17.568Z,56.65
2023-04-12T00:01:29.519Z,56.41
2023-04-12T00:01:41.519Z,56.83
2023-04-12T00:01:53.501Z,56.34
2023-04-12T00:02:07.150Z,55.93
2023-04-12T00:02:19.277Z,56.33
2023-04-12T00:02:35.626Z,56.23
2023-04-12T00:02:49.780Z,56.16
2023-04-12T00:03:06.228Z,56.34
2023-04-12T00:03:20.794Z,56.35
2023-04-12T00:03:36.282Z,56.60
2023-04-12T00:03:50.955Z,56.46
2023-04-12T00:04:05.078Z,57.38
2023-04-12T00:04:17.380Z,57.85
2023-04-12T00:04:36.734Z,58.12
2023-04-12T00:04:55.328Z,58.27
2023-04-12T00:05:09.625Z,58.91
2023-04-12T00:05:27.281Z,58.65
2023-04-12T00:05:39.177Z,58.46
2023-04-12T00:05:54.814Z,58.77
2023-04-12T00:06:07.602Z,58.78
2023-04-12T00:06:25.133Z,60.03
2023-04-12T00:06:37.023Z,59.47
2023-04-12T00:06:50.715Z,59.01
2023-04-12T00:07:02.865Z,58.99
2023-04-12T00:07:14.791Z,59.28
2023-04-12T00:07:27.427Z,59.06
2023-04-12T00:07:39.573Z,58.72
2023-04-12T00:07:53.179Z,58.72
2023-04-12T00:08:06.166Z,58.67
2023-04-12T00:08:18.083Z,59.10
2023-04-12T00:08:35.714Z,58.66
2023-04-12T00:08:47.634Z,58.92
2023-04-12T00:09:00.942Z,58.98
2023-04-12T00:09:13.689Z,58.57
2023-04-12T00:09:30.302Z,58.61
2023-04-12T00:09:43.351Z,58.03
2023-04-12T00:09:55.776Z,58.81
2023-04-12T00:10:09.333Z,58.85
2023-04-12T00:10:21.931Z,58.88
2023-04-12T00:10:33.943Z,58.70
2023-04-12T00:10:46.037Z,58.64
2023-04-12T00:10:57.976Z,58.92
2023-04-12T00:11:09.887Z,58.84
2023-04-12T00:11:21.807Z,58.84
2023-04-12T00:11:33.763Z,58.93
2023-04-12T00:11:45.823Z,58.95
2023-04-12T00:11:59.071Z,59.20
2023-04-12T00:12:10.964Z,59.27
2023-04-12T00:12:22.997Z,59.48
2023-04-12T00:12:38.143Z,59.19
2023-04-12T00:12:50.078Z,58.67
2023-04-12T00:13:02.040Z,58.93
2023-04-12T00:13:14.125Z,58.45
2023-04-12T00:13:26.205Z,58.60
2023-04-12T00:13:38.829Z,58.98
2023-04-12T00:13:51.989Z,58.39
2023-04-12T00:14:03.875Z,58.40
2023-04-12T00:14:15.876Z,58.21
2023-04-12T00:14:27.866Z,57.84
2023-04-12T00:14:39.865Z,57.99
2023-04-12T00:14:51.819Z,57.72
2023-04-12T00:15:05.167Z,57.98
2023-04-12T00:15:18.740Z,57.98
2023-04-12T00:15:30.788Z,58.00
2023-04-12T00:15:42.709Z,57.56
2023-04-12T00:15:54.923Z,57.03
2023-04-12T00:16:07.368Z,56.75
2023-04-12T00:16:19.375Z,56.32
2023-04-12T00:16:32.335Z,56.96
2023-04-12T00:16:44.549Z,56.76
2023-04-12T00:16:56.466Z,57.30
2023-04-12T00:17:08.380Z,57.73
2023-04-12T00:17:20.351Z,57.83
2023-04-12T00:17:32.403Z,57.77
2023-04-12T00:17:44.971Z,57.39
2023-04-12T00:17:56.919Z,57.17
2023-04-12T00:18:08.837Z,57.04
2023-04-12T00:18:24.875Z,56.86
2023-04-12T00:18:36.862Z,56.85
2023-04-12T00:18:48.743Z,57.23
2023-04-12T00:19:01.658Z,56.79
2023-04-12T00:19:13.573Z,56.80
2023-04-12T00:19:27.511Z,56.95
2023-04-12T00:19:42.653Z,57.31
2023-04-12T00:19:54.537Z,57.24
2023-04-12T00:20:12.144Z,57.49
2023-04-12T00:20:24.499Z,57.73
2023-04-12T00:20:36.452Z,57.90
2023-04-12T00:20:48.331Z,57.62
2023-04-12T00:21:00.624Z,57.31
2023-04-12T00:21:13.429Z,57.23
2023-04-12T00:21:28.799Z,56.75
2023-04-12T00:21:40.869Z,57.76
2023-04-12T00:21:53.492Z,57.36
2023-04-12T00:22:06.133Z,57.53
2023-04-12T00:22:18.162Z,57.27
2023-04-12T00:22:31.368Z,57.01
2023-04-12T00:22:43.431Z,57.48
2023-04-12T00:22:57.527Z,57.31
2023-04-12T00:23:10.546Z,57.59
2023-04-12T00:23:22.476Z,57.87
2023-04-12T00:23:34.361Z,57.58
2023-04-12T00:23:47.415Z,57.52
2023-04-12T00:23:59.731Z,57.66
2023-04-12T00:24:13.909Z,57.56
2023-04-12T00:24:26.689Z,57.69
2023-04-12T00:24:40.382Z,57.37
2023-04-12T00:24:52.303Z,57.44
2023-04-12T00:25:04.746Z,57.62
2023-04-12T00:25:16.708Z,57.88
2023-04-12T00:25:28.632Z,57.55
2023-04-12T00:25:40.587Z,57.97
2023-04-12T00:25:52.488Z,57.71
2023-04-12T00:26:05.185Z,57.81
2023-04-12T00:26:17.118Z,57.45
2023-04-12T00:26:29.122Z,57.80
2023-04-12T00:26:41.042Z,57.64
2023-04-12T00:26:54.182Z,57.89
2023-04-12T00:27:06.328Z,57.38
2023-04-12T00:27:18.303Z,57.30
2023-04-12T00:27:30.312Z,57.46
2023-04-12T00:27:42.240Z,57.78
2023-04-12T00:27:54.184Z,57.87
2023-04-12T00:28:06.224Z,57.70
2023-04-12T00:28:18.168Z,57.97
2023-04-12T00:28:31.333Z,58.41
2023-04-12T00:28:43.228Z,58.65
2023-04-12T00:28:55.633Z,58.91
2023-04-12T00:29:07.514Z,58.80
2023-04-12T00:29:19.454Z,59.20
2023-04-12T00:29:31.926Z,59.27
2023-04-12T00:29:43.943Z,59.98
2023-04-12T00:29:55.887Z,59.97
2023-04-12T00:30:08.489Z,59.84
2023-04-12T00:30:21.257Z,59.67
2023-04-12T00:30:33.249Z,60.05
2023-04-12T00:30:45.928Z,60.42
2023-04-12T00:30:57.923Z,60.71
2023-04-12T00:31:09.918Z,60.81
2023-04-12T00:31:21.935Z,60.53
2023-04-12T00:31:33.902Z,60.57
2023-04-12T00:31:45.954Z,60.54
2023-04-12T00:31:58.268Z,60.45
2023-04-12T00:32:11.213Z,60.84
2023-04-12T00:32:23.150Z,61.03
2023-04-12T00:32:35.372Z,60.78
2023-04-12T00:32:47.303Z,60.90
2023-04-12T00:32:59.337Z,60.88
2023-04-12T00:33:11.393Z,60.96
2023-04-12T00:33:23.318Z,60.77
2023-04-12T00:33:35.408Z,60.86
2023-04-12T00:33:47.361Z,60.82
2023-04-12T00:33:59.349Z,60.77
2023-04-12T00:34:11.540Z,60.88
2023-04-12T00:34:23.569Z,61.12
2023-04-12T00:34:35.463Z,61.63
2023-04-12T00:34:47.385Z,61.15
2023-04-12T00:34:59.348Z,61.80
2023-04-12T00:35:11.291Z,61.51
2023-04-12T00:35:23.257Z,61.75
2023-04-12T00:35:35.354Z,61.30
2023-04-12T00:35:47.327Z,61.70
2023-04-12T00:35:59.406Z,61.75
2023-04-12T00:36:11.558Z,62.25
2023-04-12T00:36:23.603Z,61.70
2023-04-12T00:36:35.534Z,61.85
2023-04-12T00:36:47.426Z,61.63
2023-04-12T00:37:00.443Z,61.87
2023-04-12T00:37:12.380Z,62.33
2023-04-12T00:37:24.332Z,62.02
2023-04-12T00:37:36.642Z,62.27
2023-04-12T00:37:48.581Z,62.27
2023-04-12T00:38:02.928Z,62.16
2023-04-12T00:38:16.090Z,62.15
2023-04-12T00:38:27.969Z,62.24
2023-04-12T00:38:40.997Z,62.27
2023-04-12T00:38:52.921Z,62.60
2023-04-12T00:39:05.033Z,62.76
2023-04-12T00:39:17.024Z,62.88
2023-04-12T00:39:29.277Z,63.01
2023-04-12T00:39:41.216Z,63.10
2023-04-12T00:39:58.910Z,63.54
2023-04-12T00:40:11.713Z,63.52
2023-04-12T00:40:23.697Z,63.35
2023-04-12T00:40:36.549Z,63.41
2023-04-12T00:40:48.446Z,63.19
2023-04-12T00:41:00.528Z,63.50
2023-04-12T00:41:13.573Z,63.33
2023-04-12T00:41:26.292Z,63.62
2023-04-12T00:41:38.253Z,63.73
2023-04-12T00:41:50.609Z,63.97
2023-04-12T00:42:05.648Z,64.14
2023-04-12T00:42:17.553Z,64.25
2023-04-12T00:42:29.489Z,64.12
2023-04-12T00:42:41.893Z,63.95
2023-04-12T00:42:53.842Z,64.40
2023-04-12T00:43:05.789Z,64.44
2023-04-12T00:43:18.814Z,64.24
2023-04-12T00:43:30.996Z,63.91
2023-04-12T00:43:43.226Z,64.20
2023-04-12T00:43:55.789Z,64.30
2023-04-12T00:44:07.916Z,64.95
2023-04-12T00:44:19.848Z,64.58
2023-04-12T00:44:33.209Z,64.95
2023-04-12T00:44:45.139Z,65.06
2023-04-12T00:44:59.793Z,64.75
2023-04-12T00:45:15.244Z,65.18
2023-04-12T00:45:27.288Z,65.02
2023-04-12T00:45:39.238Z,64.45
2023-04-12T00:45:51.197Z,64.90
2023-04-12T00:46:04.144Z,64.80
2023-04-12T00:46:17.867Z,64.52
2023-04-12T00:46:30.630Z,64.49
2023-04-12T00:46:44.059Z,64.39
2023-04-12T00:46:56.305Z,64.34
2023-04-12T00:47:08.539Z,64.58
2023-04-12T00:47:20.950Z,64.33
2023-04-12T00:47:35.640Z,64.22
2023-04-12T00:47:47.887Z,64.55
2023-04-12T00:47:59.869Z,64.67
2023-04-12T00:48:12.799Z,64.77
2023-04-12T00:48:26.845Z,64.76
2023-04-12T00:48:39.428Z,65.47
2023-04-12T00:48:51.559Z,65.00
2023-04-12T00:49:03.906Z,65.40
2023-04-12T00:49:15.983Z,65.13
2023-04-12T00:49:30.622Z,65.33
2023-04-12T00:49:42.613Z,65.49
2023-04-12T00:49:54.494Z,65.10
2023-04-12T00:50:08.394Z,65.37
2023-04-12T00:50:21.170Z,65.48
2023-04-12T00:50:34.105Z,65.36
2023-04-12T00:50:46.587Z,65.67
2023-04-12T00:50:58.613Z,65.66
2023-04-12T00:51:10.643Z,65.94
2023-04-12T00:51:25.337Z,65.77
2023-04-12T00:51:38.126Z,66.01
2023-04-12T00:51:51.231Z,65.87
2023-04-12T00:52:08.462Z,66.13
2023-04-12T00:52:20.604Z,66.68
2023-04-12T00:52:36.223Z,66.47
2023-04-12T00:52:48.180Z,66.16
2023-04-12T00:53:00.576Z,66.05
2023-04-12T00:53:14.400Z,66.24
2023-04-12T00:53:28.016Z,66.22
2023-04-12T00:53:41.128Z,66.59
2023-04-12T00:53:58.123Z,66.54
2023-04-12T00:54:11.050Z,66.58
2023-04-12T00:54:23.013Z,66.70
2023-04-12T00:54:35.850Z,67.29
2023-04-12T00:54:47.963Z,67.44
2023-04-12T00:55:10.588Z,68.04
2023-04-12T00:55:23.091Z,67.89
2023-04-12T00:55:36.061Z,67.95
2023-04-12T00:55:50.023Z,68.13
2023-04-12T00:56:03.834Z,68.22
2023-04-12T00:56:17.092Z,68.31
2023-04-12T00:56:29.795Z,68.11
2023-04-12T00:56:41.742Z,68.32
2023-04-12T00:56:53.815Z,68.26
2023-04-12T00:57:06.196Z,68.52
2023-04-12T00:57:18.207Z,68.66
2023-04-12T00:57:38.110Z,68.37
2023-04-12T00:57:50.017Z,68.30
2023-04-12T00:58:01.945Z,68.86
2023-04-12T00:58:14.770Z,68.82
2023-04-12T00:58:26.694Z,69.08
2023-04-12T00:58:38.728Z,68.83
2023-04-12T00:58:50.909Z,69.28
2023-04-12T00:59:02.797Z,69.51
2023-04-12T00:59:15.224Z,69.57
2023-04-12T00:59:28.223Z,68.86
2023-04-12T00:59:40.846Z,68.83
2023-04-12T00:59:53.129Z,68.70
2023-04-12T01:00:17.151Z,68.85
2023-04-12T01:00:29.169Z,69.25
2023-04-12T01:00:41.825Z,69.42
2023-04-12T01:00:54.833Z,69.39
2023-04-12T01:01:07.244Z,69.34
2023-04-12T01:01:19.587Z,68.96
2023-04-12T01:01:32.020Z,69.24
2023-04-12T01:01:45.405Z,69.48
2023-04-12T01:01:58.297Z,69.90
2023-04-12T01:02:10.451Z,70.09
2023-04-12T01:02:22.772Z,69.95
2023-04-12T01:02:35.666Z,69.79
2023-04-12T01:02:50.473Z,69.50
2023-04-12T01:03:05.397Z,69.05
2023-04-12T01:03:23.173Z,69.04
2023-04-12T01:03:42.745Z,68.72
2023-04-12T01:04:00.984Z,69.00
2023-04-12T01:04:13.953Z,69.49
2023-04-12T01:04:28.025Z,69.18
2023-04-12T01:04:43.477Z,69.32
2023-04-12T01:04:58.540Z,69.71
2023-04-12T01:05:14.585Z,68.98
2023-04-12T01:05:27.134Z,69.01
2023-04-12T01:05:50.229Z,69.47
2023-04-12T01:06:21.066Z,69.54
2023-04-12T01:06:46.412Z,68.88
2023-04-12T01:07:03.611Z,69.33
2023-04-12T01:07:15.817Z,69.48
2023-04-12T01:07:30.660Z,69.24
2023-04-12T01:07:55.765Z,69.51
2023-04-12T01:08:24.077Z,70.16
2023-04-12T01:08:57.799Z,71.23
2023-04-12T01:09:21.471Z,70.77
2023-04-12T01:09:53.197Z,70.76
2023-04-12T01:10:36.687Z,70.79
2023-04-12T01:11:05.219Z,70.53
2023-04-12T01:11:32.593Z,70.57
2023-04-12T01:11:51.215Z,71.24
2023-04-12T01:12:16.222Z,70.93
2023-04-12T01:12:33.780Z,71.32
2023-04-12T01:13:08.828Z,71.93
2023-04-12T01:13:20.708Z,72.05
2023-04-12T01:13:37.794Z,72.80
2023-04-12T01:14:18.502Z,73.19
2023-04-12T01:14:55.905Z,73.99
2023-04-12T01:15:12.050Z,73.59
2023-04-12T01:15:26.276Z,73.03
2023-04-12T01:15:50.088Z,73.77
2023-04-12T01:16:15.275Z,74.66
2023-04-12T01:16:36.414Z,74.88
2023-04-12T01:16:53.664Z,75.53
2023-04-12T01:17:08.092Z,75.09
2023-04-12T01:17:25.000Z,75.05
2023-04-12T01:17:59.623Z,75.26
2023-04-12T01:18:23.625Z,75.67
2023-04-12T01:18:40.813Z,75.75
2023-04-12T01:18:59.809Z,75.76
2023-04-12T01:19:35.976Z,75.23
2023-04-12T01:19:57.663Z,74.13
2023-04-12T01:20:23.427Z,73.76
2023-04-12T01:20:44.827Z,73.87
2023-04-12T01:21:09.753Z,75.45
2023-04-12T01:21:36.233Z,75.07
2023-04-12T01:22:00.381Z,74.91
2023-04-12T01:22:38.604Z,76.03
2023-04-12T01:23:31.347Z,76.04
2023-04-12T01:23:52.147Z,75.76
2023-04-12T01:24:19.561Z,75.70
2023-04-12T01:24:58.427Z,75.45
2023-04-12T01:25:23.969Z,75.31
2023-04-12T01:25:51.773Z,74.68
2023-04-12T01:26:25.519Z,75.25
2023-04-12T01:26:49.399Z,75.63
2023-04-12T01:27:03.167Z,75.11
2023-04-12T01:27:35.970Z,75.35
2023-04-12T01:27:54.466Z,75.13
2023-04-12T01:28:10.250Z,75.12
2023-04-12T01:28:27.545Z,75.39
2023-04-12T01:28:43.318Z,75.98
2023-04-12T01:28:56.420Z,76.21
2023-04-12T01:29:11.117Z,76.89
2023-04-12T01:29:27.081Z,77.07
2023-04-12T01:29:40.752Z,77.19
2023-04-12T01:29:52.720Z,77.11
2023-04-12T01:30:07.940Z,76.60
2023-04-12T01:30:20.901Z,76.44
2023-04-12T01:30:33.774Z,76.39
2023-04-12T01:30:47.835Z,76.09
2023-04-12T01:31:03.264Z,76.36
2023-04-12T01:31:15.552Z,76.94
2023-04-12T01:31:30.020Z,77.01
2023-04-12T01:31:53.216Z,77.19
2023-04-12T01:32:06.288Z,77.35
2023-04-12T01:32:20.007Z,76.85
2023-04-12T01:32:34.516Z,76.62
2023-04-12T01:32:53.089Z,77.00
2023-04-12T01:33:07.798Z,77.48
2023-04-12T01:33:20.668Z,76.93
2023-04-12T01:33:36.805Z,77.50
2023-04-12T01:33:51.285Z,76.94
2023-04-12T01:34:04.713Z,76.81
2023-04-12T01:34:17.794Z,77.06
2023-04-12T01:34:32.639Z,76.90
2023-04-12T01:34:45.489Z,77.45
2023-04-12T01:34:59.255Z,77.16
2023-04-12T01:35:12.041Z,76.52
2023-04-12T01:35:28.278Z,76.49
2023-04-12T01:35:41.252Z,76.19
2023-04-12T01:35:54.649Z,76.71
2023-04-12T01:36:13.849Z,76.78
2023-04-12T01:36:27.428Z,76.42
2023-04-12T01:36:41.125Z,76.42
2023-04-12T01:36:55.230Z,76.36
2023-04-12T01:37:08.196Z,76.23
2023-04-12T01:37:21.579Z,76.61
2023-04-12T01:37:35.151Z,76.59
2023-04-12T01:37:47.286Z,76.85
2023-04-12T01:38:00.137Z,76.97
2023-04-12T01:38:12.406Z,76.80
2023-04-12T01:38:24.785Z,76.72
2023-04-12T01:38:36.713Z,76.46
2023-04-12T01:38:50.920Z,76.81
2023-04-12T01:39:04.580Z,76.57
2023-04-12T01:39:16.658Z,76.48
2023-04-12T01:39:30.810Z,76.48
2023-04-12T01:39:43.092Z,76.41
2023-04-12T01:39:55.035Z,76.34
2023-04-12T01:40:09.203Z,76.31
2023-04-12T01:40:21.322Z,76.36
2023-04-12T01:40:33.541Z,76.32
2023-04-12T01:40:46.133Z,76.50
2023-04-12T01:40:58.212Z,76.01
2023-04-12T01:41:10.294Z,75.87
2023-04-12T01:41:22.276Z,75.98
2023-04-12T01:41:39.820Z,75.87
2023-04-12T01:41:51.748Z,76.00
2023-04-12T01:42:03.762Z,75.84
2023-04-12T01:42:21.365Z,75.83
2023-04-12T01:42:33.556Z,75.79
2023-04-12T01:42:46.710Z,76.14
2023-04-12T01:43:05.399Z,75.96
2023-04-12T01:43:17.529Z,76.13
2023-04-12T01:43:29.417Z,76.22
2023-04-12T01:43:45.991Z,76.00
2023-04-12T01:43:58.233Z,75.92
2023-04-12T01:44:12.907Z,76.12
2023-04-12T01:44:24.887Z,76.32
2023-04-12T01:44:37.164Z,76.38
2023-04-12T01:44:50.508Z,76.06
2023-04-12T01:45:03.828Z,76.17
2023-04-12T01:45:16.036Z,76.10
2023-04-12T01:45:27.932Z,76.38
2023-04-12T01:45:41.501Z,76.30
2023-04-12T01:45:53.970Z,76.13
2023-04-12T01:46:06.594Z,76.01
2023-04-12T01:46:22.464Z,75.99
2023-04-12T01:46:37.407Z,75.89
2023-04-12T01:46:49.961Z,75.88
2023-04-12T01:47:02.251Z,76.05
2023-04-12T01:47:14.805Z,75.22
2023-04-12T01:47:27.508Z,75.42
2023-04-12T01:47:39.715Z,75.94
2023-04-12T01:47:51.696Z,75.65
2023-04-12T01:48:08.759Z,75.42
2023-04-12T01:48:20.823Z,75.72
2023-04-12T01:48:32.769Z,75.70
2023-04-12T01:48:52.743Z,75.88
2023-04-12T01:49:05.612Z,75.88
2023-04-12T01:49:18.906Z,76.47
2023-04-12T01:49:42.706Z,75.98
2023-04-12T01:50:27.692Z,75.94
2023-04-12T01:50:39.660Z,76.01
2023-04-12T01:51:09.400Z,76.23
2023-04-12T01:51:46.027Z,76.15
2023-04-12T01:52:19.314Z,76.13
2023-04-12T01:52:35.625Z,76.08
2023-04-12T01:53:01.590Z,76.08
2023-04-12T01:53:28.432Z,76.09
2023-04-12T01:53:54.583Z,75.60
2023-04-12T01:54:19.557Z,74.99
2023-04-12T01:54:37.216Z,75.31
2023-04-12T01:54:54.783Z,75.17
2023-04-12T01:55:07.224Z,75.26
2023-04-12T01:55:22.009Z,75.72
2023-04-12T01:55:37.263Z,75.75
2023-04-12T01:55:50.986Z,75.39
2023-04-12T01:56:08.703Z,75.50
2023-04-12T01:56:22.733Z,75.59
2023-04-12T01:56:37.924Z,75.19
2023-04-12T01:56:57.849Z,75.85
2023-04-12T01:57:11.346Z,75.94
2023-04-12T01:57:23.945Z,76.18
2023-04-12T01:57:38.935Z,76.02
2023-04-12T01:57:53.255Z,76.23
2023-04-12T01:58:05.956Z,76.01
2023-04-12T01:58:21.938Z,76.15
2023-04-12T01:58:34.589Z,76.14
2023-04-12T01:58:48.535Z,75.95
2023-04-12T01:59:02.205Z,76.25
2023-04-12T01:59:16.003Z,75.93
2023-04-12T01:59:48.764Z,75.66
2023-04-12T02:00:02.468Z,75.81
2023-04-12T02:00:16.818Z,76.18
2023-04-12T02:00:30.460Z,76.23
2023-04-12T02:00:44.319Z,76.51
2023-04-12T02:00:57.649Z,75.67
2023-04-12T02:01:12.562Z,75.76
2023-04-12T02:01:25.708Z,75.91
2023-04-12T02:01:40.646Z,76.10
2023-04-12T02:01:53.200Z,76.34
2023-04-12T02:02:05.956Z,75.99
2023-04-12T02:02:18.690Z,75.61
2023-04-12T02:02:31.067Z,75.92
2023-04-12T02:02:43.579Z,75.92
2023-04-12T02:02:57.636Z,75.60
2023-04-12T02:03:10.530Z,76.06
2023-04-12T02:03:23.691Z,76.36
2023-04-12T02:03:37.565Z,75.93
2023-04-12T02:03:50.947Z,75.75
2023-04-12T02:04:04.858Z,75.77
2023-04-12T02:04:18.609Z,75.63
2023-04-12T02:04:31.584Z,76.08
2023-04-12T02:04:44.489Z,75.67
2023-04-12T02:04:57.076Z,75.84
2023-04-12T02:05:10.228Z,75.78
2023-04-12T02:05:22.444Z,76.26
2023-04-12T02:05:34.639Z,75.87
2023-04-12T02:05:46.687Z,75.91
2023-04-12T02:05:59.598Z,76.72
2023-04-12T02:06:12.257Z,76.47
2023-04-12T02:06:25.000Z,75.84
2023-04-12T02:06:48.046Z,76.19
2023-04-12T02:06:59.984Z,76.33
2023-04-12T02:07:13.557Z,76.32
2023-04-12T02:07:25.506Z,76.72
2023-04-12T02:07:37.706Z,75.96
2023-04-12T02:07:50.843Z,75.72
2023-04-12T02:08:03.785Z,76.05
2023-04-12T02:08:17.100Z,76.09
2023-04-12T02:08:30.314Z,76.28
2023-04-12T02:08:42.339Z,76.25
2023-04-12T02:09:02.552Z,75.63
2023-04-12T02:09:14.500Z,76.06
2023-04-12T02:09:26.463Z,75.86
2023-04-12T02:09:39.187Z,75.52
2023-04-12T02:09:51.125Z,76.07
2023-04-12T02:10:03.605Z,75.70
2023-04-12T02:10:15.775Z,76.25
2023-04-12T02:10:29.689Z,76.41
2023-04-12T02:10:41.701Z,75.46
2023-04-12T02:10:54.815Z,75.21
2023-04-12T02:11:10.921Z,75.60
2023-04-12T02:11:22.791Z,75.41
2023-04-12T02:11:35.000Z,75.44
2023-04-12T02:11:49.953Z,75.54
2023-04-12T02:12:01.978Z,75.66
2023-04-12T02:12:13.981Z,75.40
2023-04-12T02:12:26.093Z,75.87
2023-04-12T02:12:38.432Z,76.03
2023-04-12T02:12:51.565Z,75.61
2023-04-12T02:13:04.130Z,75.53
2023-04-12T02:13:18.068Z,75.32
2023-04-12T02:13:30.088Z,75.84
2023-04-12T02:13:42.082Z,75.45
2023-04-12T02:13:54.451Z,75.75
2023-04-12T02:14:07.629Z,75.53
2023-04-12T02:14:19.591Z,75.45
2023-04-12T02:14:31.482Z,75.42
2023-04-12T02:14:43.445Z,75.57
2023-04-12T02:14:57.133Z,75.71
2023-04-12T02:15:09.300Z,75.55
2023-04-12T02:15:21.351Z,75.79
2023-04-12T02:15:34.135Z,75.04
2023-04-12T02:15:46.300Z,75.19
2023-04-12T02:15:59.117Z,75.24
2023-04-12T02:16:13.868Z,75.38
2023-04-12T02:16:29.386Z,75.64
2023-04-12T02:16:45.612Z,75.35
2023-04-12T02:16:58.717Z,75.48
2023-04-12T02:17:13.056Z,75.77
2023-04-12T02:17:24.989Z,75.38
2023-04-12T02:17:37.349Z,75.22
2023-04-12T02:17:53.990Z,75.50
2023-04-12T02:18:06.043Z,75.71
2023-04-12T02:18:18.035Z,75.33
2023-04-12T02:18:30.337Z,75.69
2023-04-12T02:18:42.821Z,75.17
2023-04-12T02:18:57.383Z,75.01
2023-04-12T02:19:10.573Z,75.23
2023-04-12T02:19:22.481Z,75.30
2023-04-12T02:19:34.377Z,75.33
2023-04-12T02:19:47.489Z,75.43
2023-04-12T02:19:59.606Z,75.23
2023-04-12T02:20:12.033Z,76.02
2023-04-12T02:20:24.485Z,76.15
2023-04-12T02:20:36.345Z,75.82
2023-04-12T02:20:49.770Z,75.76
2023-04-12T02:21:01.827Z,75.94
2023-04-12T02:21:13.817Z,76.05
2023-04-12T02:21:27.694Z,76.30
2023-04-12T02:21:45.588Z,76.57
2023-04-12T02:22:00.303Z,76.33
2023-04-12T02:22:12.243Z,76.73
2023-04-12T02:22:24.172Z,76.32
2023-04-12T02:22:36.100Z,77.00
2023-04-12T02:22:48.476Z,76.61
2023-04-12T02:23:00.986Z,76.85
2023-04-12T02:23:13.197Z,76.70
2023-04-12T02:23:26.024Z,76.34
2023-04-12T02:23:37.988Z,76.31
2023-04-12T02:23:50.299Z,75.75
2023-04-12T02:24:02.216Z,75.50
2023-04-12T02:24:15.427Z,75.70
2023-04-12T02:24:27.652Z,75.53
2023-04-12T02:24:39.748Z,75.77
2023-04-12T02:24:52.064Z,75.57
2023-04-12T02:25:06.383Z,75.96
2023-04-12T02:25:18.608Z,75.99
2023-04-12T02:25:31.074Z,76.35
2023-04-12T02:25:44.034Z,76.84
2023-04-12T02:25:56.019Z,76.88
2023-04-12T02:26:07.956Z,77.42
2023-04-12T02:26:19.850Z,77.63
2023-04-12T02:26:31.720Z,77.88
2023-04-12T02:26:43.629Z,77.51
2023-04-12T02:26:56.437Z,77.65
2023-04-12T02:27:14.086Z,77.16
2023-04-12T02:27:26.102Z,77.12
2023-04-12T02:27:38.061Z,76.88
2023-04-12T02:27:49.936Z,77.59
2023-04-12T02:28:01.997Z,77.29
2023-04-12T02:28:13.906Z,77.33
2023-04-12T02:28:25.860Z,77.16
2023-04-12T02:28:38.709Z,77.08
2023-04-12T02:28:52.382Z,77.76
2023-04-12T02:29:08.938Z,77.60
2023-04-12T02:29:20.854Z,77.37
2023-04-12T02:29:32.738Z,77.29
2023-04-12T02:29:45.109Z,77.73
2023-04-12T02:29:58.563Z,78.09
2023-04-12T02:30:11.344Z,78.30
2023-04-12T02:30:23.226Z,78.65
2023-04-12T02:30:35.598Z,78.89
2023-04-12T02:30:47.667Z,78.49
2023-04-12T02:30:59.657Z,78.88
2023-04-12T02:31:12.094Z,78.59
2023-04-12T02:31:24.599Z,78.28
2023-04-12T02:31:38.780Z,78.08
2023-04-12T02:31:51.113Z,77.95
2023-04-12T02:32:03.127Z,78.30
2023-04-12T02:32:21.614Z,77.91
2023-04-12T02:32:44.970Z,78.78
2023-04-12T02:32:57.789Z,78.54
2023-04-12T02:33:11.577Z,78.83
2023-04-12T02:33:28.106Z,78.67
2023-04-12T02:33:41.156Z,78.58
2023-04-12T02:33:53.107Z,78.00
2023-04-12T02:34:06.349Z,78.77
2023-04-12T02:34:18.910Z,78.52
2023-04-12T02:34:34.256Z,78.40
2023-04-12T02:34:51.235Z,78.32
2023-04-12T02:35:03.252Z,78.43
2023-04-12T02:35:19.391Z,78.19
2023-04-12T02:35:32.019Z,78.39
2023-04-12T02:35:44.037Z,78.40
2023-04-12T02:35:57.320Z,78.44
2023-04-12T02:36:11.283Z,78.26
2023-04-12T02:36:23.220Z,78.32
2023-04-12T02:36:37.541Z,78.32
2023-04-12T02:36:49.698Z,78.35
2023-04-12T02:37:03.707Z,78.22
2023-04-12T02:37:19.018Z,78.02
2023-04-12T02:37:31.626Z,77.94
2023-04-12T02:37:46.648Z,78.67
2023-04-12T02:37:58.518Z,78.41
2023-04-12T02:38:10.626Z,79.22
2023-04-12T02:38:23.236Z,79.30
2023-04-12T02:38:35.323Z,78.66
2023-04-12T02:38:50.749Z,78.61
2023-04-12T02:39:02.640Z,78.55
2023-04-12T02:39:14.622Z,78.35
2023-04-12T02:39:26.530Z,78.34
2023-04-12T02:39:38.556Z,78.40
2023-04-12T02:39:50.429Z,78.34
2023-04-12T02:40:06.585Z,78.75
2023-04-12T02:40:18.484Z,78.58
2023-04-12T02:40:30.589Z,79.02
2023-04-12T02:40:42.524Z,78.89
2023-04-12T02:40:54.753Z,78.85
2023-04-12T02:41:07.029Z,78.70
2023-04-12T02:41:19.618Z,78.63
2023-04-12T02:41:31.529Z,78.51
2023-04-12T02:41:43.456Z,78.31
2023-04-12T02:41:55.368Z,78.56
2023-04-12T02:42:07.291Z,78.62
2023-04-12T02:42:21.733Z,78.87
2023-04-12T02:42:36.709Z,78.55
2023-04-12T02:42:48.645Z,78.65
2023-04-12T02:43:00.819Z,78.46
2023-04-12T02:43:12.757Z,78.55
2023-04-12T02:43:24.700Z,78.49
2023-04-12T02:43:36.606Z,78.54
2023-04-12T02:43:48.759Z,78.83
2023-04-12T02:44:00.659Z,78.35
2023-04-12T02:44:13.122Z,78.48
2023-04-12T02:44:25.079Z,78.59
2023-04-12T02:44:37.012Z,78.30
2023-04-12T02:44:48.930Z,78.10
2023-04-12T02:45:01.153Z,78.57
2023-04-12T02:45:13.302Z,78.29
2023-04-12T02:45:25.321Z,78.17
2023-04-12T02:45:37.213Z,78.45
2023-04-12T02:45:49.311Z,78.33
2023-04-12T02:46:01.383Z,78.88
2023-04-12T02:46:21.593Z,79.17
2023-04-12T02:46:34.034Z,79.59
2023-04-12T02:46:45.989Z,79.23
2023-04-12T02:46:57.970Z,78.95
2023-04-12T02:47:09.892Z,78.98
2023-04-12T02:47:21.766Z,79.26
2023-04-12T02:47:37.296Z,79.43
2023-04-12T02:47:49.237Z,79.52
2023-04-12T02:48:01.234Z,79.27
2023-04-12T02:48:13.229Z,79.14
2023-04-12T02:48:25.230Z,78.93
2023-04-12T02:48:37.140Z,79.26
2023-04-12T02:48:49.662Z,79.28
2023-04-12T02:49:01.533Z,79.08
2023-04-12T02:49:13.399Z,79.40
2023-04-12T02:49:25.676Z,79.21
2023-04-12T02:49:37.999Z,78.90
2023-04-12T02:49:50.616Z,78.80
2023-04-12T02:50:02.954Z,78.91
2023-04-12T02:50:14.927Z,78.98
2023-04-12T02:50:26.862Z,78.74
2023-04-12T02:50:39.050Z,78.84
2023-04-12T02:50:50.944Z,79.06
2023-04-12T02:51:02.875Z,78.93
2023-04-12T02:51:15.389Z,79.17
2023-04-12T02:51:28.036Z,79.25
2023-04-12T02:51:39.964Z,79.12
2023-04-12T02:51:51.892Z,79.43
2023-04-12T02:52:03.999Z,79.33
2023-04-12T02:52:16.008Z,79.02
2023-04-12T02:52:29.828Z,78.78
2023-04-12T02:52:41.718Z,78.95
2023-04-12T02:52:53.593Z,78.92
2023-04-12T02:53:05.641Z,79.27
2023-04-12T02:53:17.789Z,79.30
2023-04-12T02:53:29.673Z,79.29
2023-04-12T02:53:41.960Z,79.10
2023-04-12T02:53:54.126Z,79.64
2023-04-12T02:54:06.084Z,79.98
2023-04-12T02:54:18.035Z,79.78
2023-04-12T02:54:30.151Z,79.56
2023-04-12T02:54:42.087Z,79.80
2023-04-12T02:54:54.053Z,79.89
2023-04-12T02:55:06.640Z,79.70
2023-04-12T02:55:18.686Z,79.63
2023-04-12T02:55:30.628Z,79.47
2023-04-12T02:55:42.678Z,79.20
2023-04-12T02:55:54.609Z,79.12
2023-04-12T02:56:07.545Z,79.54
2023-04-12T02:56:19.584Z,79.37
2023-04-12T02:56:34.783Z,79.45
2023-04-12T02:56:46.686Z,79.45
2023-04-12T02:56:58.677Z,79.68
2023-04-12T02:57:11.551Z,79.64
2023-04-12T02:57:23.530Z,79.41
2023-04-12T02:57:35.409Z,79.33
2023-04-12T02:57:48.538Z,79.38
2023-04-12T02:58:00.701Z,79.68
2023-04-12T02:58:12.861Z,79.90
2023-04-12T02:58:24.835Z,79.56
2023-04-12T02:58:37.066Z,80.01
2023-04-12T02:58:48.950Z,79.79
2023-04-12T02:59:00.848Z,79.74
2023-04-12T02:59:12.928Z,79.83
2023-04-12T02:59:25.288Z,79.44
2023-04-12T02:59:37.282Z,79.51
2023-04-12T02:59:53.201Z,79.76
2023-04-12T03:00:12.249Z,79.82
2023-04-12T03:00:24.594Z,79.41
2023-04-12T03:00:36.524Z,79.35
2023-04-12T03:00:49.907Z,79.37
2023-04-12T03:01:02.936Z,79.40
2023-04-12T03:01:14.983Z,79.56
2023-04-12T03:01:27.095Z,79.52
2023-04-12T03:01:40.534Z,79.54
2023-04-12T03:01:52.623Z,79.66
2023-04-12T03:02:04.864Z,80.05
2023-04-12T03:02:17.282Z,80.04